Time;durP1;ratioP1;P1;durP2;ratioP2;P2;SDS_P1;SDS_P2;PMS_P1;PMS_P2;Temp;Humidity;BMP_temperature;BMP_pressure;BME280_temperature;BME280_humidity;BME280_pressure;Samples;Min_cycle;Max_cycle;Signal;HPM_P1;HPM_P2
2021/10/14 00:03:16;;;;;;;11.60;8.13;;;;;;;-140.79;100.00;63287.88;5121248;23;20282;-64
2021/10/14 00:05:41;;;;;;;12.43;8.88;;;;;;;-140.79;100.00;63287.88;5003857;28;20033;-65
2021/10/14 00:08:07;;;;;;;11.38;8.55;;;;;;;-140.79;100.00;63287.88;5004091;28;20072;-65
2021/10/14 00:10:32;;;;;;;11.40;8.52;;;;;;;-140.79;100.00;63287.88;5004878;28;20491;-65
2021/10/14 00:12:58;;;;;;;10.68;8.13;;;;;;;-140.79;100.00;63287.88;5004672;28;20483;-65
2021/10/14 00:15:25;;;;;;;11.10;9.00;;;;;;;-140.79;100.00;63287.88;5004699;28;20393;-64
2021/10/14 00:17:50;;;;;;;11.80;8.93;;;;;;;-140.79;100.00;63287.88;4986787;28;20076;-64
2021/10/14 00:20:15;;;;;;;11.35;8.50;;;;;;;-140.79;100.00;63287.88;4987731;28;20030;-65
2021/10/14 00:22:41;;;;;;;11.90;8.63;;;;;;;-140.79;100.00;63287.88;4988017;28;20029;-64
2021/10/14 00:25:07;;;;;;;10.93;7.97;;;;;;;-140.79;100.00;63287.88;4987807;28;20480;-65
2021/10/14 00:27:32;;;;;;;11.77;8.68;;;;;;;-140.79;100.00;63287.88;5004714;28;20029;-64
2021/10/14 00:29:58;;;;;;;10.65;8.23;;;;;;;-140.79;100.00;63287.88;4987493;28;20052;-64
2021/10/14 00:32:23;;;;;;;11.32;8.35;;;;;;;-140.79;100.00;63287.88;5004922;28;20570;-65
2021/10/14 00:34:49;;;;;;;11.38;8.55;;;;;;;-140.79;100.00;63287.88;5003793;28;20026;-64
2021/10/14 00:37:14;;;;;;;11.48;8.02;;;;;;;-140.79;100.00;63287.88;4986939;28;20029;-64
2021/10/14 00:39:40;;;;;;;10.23;7.80;;;;;;;-140.79;100.00;63287.88;5004582;28;20029;-64
2021/10/14 00:42:05;;;;;;;10.52;8.38;;;;;;;-140.79;100.00;63287.88;5007336;28;20022;-63
2021/10/14 00:44:47;;;;;;;10.18;7.78;;;;;;;-140.79;100.00;63287.88;4990722;28;20022;-64
2021/10/14 00:47:19;;;;;;;11.20;8.00;;;;;;;-140.79;100.00;63287.88;4990299;28;20057;-64
2021/10/14 00:49:45;;;;;;;10.00;7.68;;;;;;;-140.79;100.00;63287.88;5008490;28;20551;-64
2021/10/14 00:52:10;;;;;;;10.88;7.65;;;;;;;-140.79;100.00;63287.88;5008237;28;20028;-64
2021/10/14 00:54:36;;;;;;;10.07;7.97;;;;;;;-140.79;100.00;63287.88;5008516;28;20076;-63
2021/10/14 00:57:01;;;;;;;11.00;7.72;;;;;;;-140.79;100.00;63287.88;4990352;28;20099;-64
2021/10/14 00:59:27;;;;;;;9.60;7.65;;;;;;;-140.79;100.00;63287.88;4990541;28;20080;-63
2021/10/14 01:01:53;;;;;;;10.70;8.07;;;;;;;-140.79;100.00;63287.88;5006682;28;20034;-63
2021/10/14 01:04:18;;;;;;;10.65;7.47;;;;;;;-140.79;100.00;63287.88;5008111;28;20648;-65
2021/10/14 01:06:44;;;;;;;11.40;7.85;;;;;;;-140.79;100.00;63287.88;4990488;28;20136;-65
2021/10/14 01:09:09;;;;;;;9.88;7.35;;;;;;;-140.79;100.00;63287.88;4989920;28;20048;-65
2021/10/14 01:11:35;;;;;;;10.93;8.05;;;;;;;-140.79;100.00;63287.88;4990052;28;20029;-65
2021/10/14 01:14:00;;;;;;;10.10;7.65;;;;;;;-140.79;100.00;63287.88;4990081;28;20030;-65
2021/10/14 01:16:26;;;;;;;10.63;7.82;;;;;;;-140.79;100.00;63287.88;4990223;28;20037;-63
2021/10/14 01:18:51;;;;;;;11.05;8.30;;;;;;;-140.79;100.00;63287.88;5007058;28;20033;-63
2021/10/14 01:21:16;;;;;;;9.15;7.30;;;;;;;-140.79;100.00;63287.88;5007673;28;20037;-63
2021/10/14 01:23:42;;;;;;;10.85;8.10;;;;;;;-140.79;100.00;63287.88;4990028;28;20021;-63
2021/10/14 01:26:07;;;;;;;10.82;8.00;;;;;;;-140.79;100.00;63287.88;5007513;28;20036;-64
2021/10/14 01:28:33;;;;;;;8.85;6.70;;;;;;;-140.79;100.00;63287.88;4989488;28;20035;-64
2021/10/14 01:30:59;;;;;;;11.10;7.63;;;;;;;-140.79;100.00;63287.88;4973490;28;20022;-63
2021/10/14 01:33:24;;;;;;;8.70;7.15;;;;;;;-140.79;100.00;63287.88;5005901;28;20064;-64
2021/10/14 01:35:50;;;;;;;9.82;7.25;;;;;;;-140.79;100.00;63287.88;4989675;28;20198;-64
2021/10/14 01:38:17;;;;;;;10.45;7.57;;;;;;;-140.79;100.00;63287.88;5006700;28;20518;-64
2021/10/14 01:40:43;;;;;;;11.10;7.88;;;;;;;-140.79;100.00;63287.88;4989917;28;20029;-64
2021/10/14 01:43:13;;;;;;;8.60;6.90;;;;;;;-140.79;100.00;63287.88;5010004;28;20032;-64
2021/10/14 01:45:38;;;;;;;8.70;6.88;;;;;;;-140.79;100.00;63287.88;4992165;28;20044;-64
2021/10/14 01:48:04;;;;;;;10.18;7.55;;;;;;;-140.79;100.00;63287.88;4989568;28;20037;-64
2021/10/14 01:50:29;;;;;;;10.70;7.00;;;;;;;-140.79;100.00;63287.88;5006853;28;20026;-64
2021/10/14 01:52:55;;;;;;;9.85;7.13;;;;;;;-140.79;100.00;63287.88;5005780;28;20041;-64
2021/10/14 01:55:20;;;;;;;9.35;6.82;;;;;;;-140.79;100.00;63287.88;4989366;28;20117;-64
2021/10/14 01:57:46;;;;;;;9.75;6.60;;;;;;;-140.79;100.00;63287.88;5006891;28;20114;-64
2021/10/14 02:00:12;;;;;;;9.50;7.13;;;;;;;-140.79;100.00;63287.88;4989020;28;20030;-64
2021/10/14 02:02:37;;;;;;;9.85;7.50;;;;;;;-140.79;100.00;63287.88;5006694;28;20228;-64
2021/10/14 02:05:03;;;;;;;10.38;7.57;;;;;;;-140.79;100.00;63287.88;5006977;28;20037;-64
2021/10/14 02:07:29;;;;;;;8.63;6.45;;;;;;;-140.79;100.00;63287.88;5004926;28;20531;-64
2021/10/14 02:09:54;;;;;;;9.55;6.95;;;;;;;-140.79;100.00;63287.88;5006908;28;20030;-64
2021/10/14 02:12:20;;;;;;;9.73;7.35;;;;;;;-140.79;100.00;63287.88;5006958;28;20049;-64
2021/10/14 02:14:45;;;;;;;8.65;6.50;;;;;;;-140.79;100.00;63287.88;5007176;28;20029;-64
2021/10/14 02:17:10;;;;;;;8.82;7.03;;;;;;;-140.79;100.00;63287.88;5006439;28;20449;-64
2021/10/14 02:19:36;;;;;;;8.98;6.88;;;;;;;-140.79;100.00;63287.88;5006232;28;20576;-64
2021/10/14 02:22:02;;;;;;;8.00;6.53;;;;;;;-140.79;100.00;63287.88;5006519;28;20628;-64
2021/10/14 02:24:27;;;;;;;10.27;7.45;;;;;;;-140.79;100.00;63287.88;5006370;28;20117;-64
2021/10/14 02:26:52;;;;;;;9.48;7.30;;;;;;;-140.79;100.00;63287.88;5005795;28;20025;-64
2021/10/14 02:29:18;;;;;;;9.40;6.57;;;;;;;-140.79;100.00;63287.88;4988595;28;20026;-64
2021/10/14 02:31:43;;;;;;;8.85;6.93;;;;;;;-140.79;100.00;63287.88;5006326;28;20066;-64
2021/10/14 02:34:09;;;;;;;8.38;6.55;;;;;;;-140.79;100.00;63287.88;4988555;28;20518;-63
2021/10/14 02:36:35;;;;;;;8.45;6.45;;;;;;;-140.79;100.00;63287.88;5005949;28;20510;-63
2021/10/14 02:39:00;;;;;;;8.45;6.32;;;;;;;-140.79;100.00;63287.88;5005912;28;20072;-63
2021/10/14 02:41:25;;;;;;;8.68;6.53;;;;;;;-140.79;100.00;63287.88;4988328;28;20036;-63
2021/10/14 02:43:51;;;;;;;9.43;6.90;;;;;;;-140.79;100.00;63287.88;5006121;28;20460;-64
2021/10/14 02:46:16;;;;;;;8.60;6.50;;;;;;;-140.79;100.00;63287.88;5006322;28;20029;-63
2021/10/14 02:48:42;;;;;;;8.70;6.45;;;;;;;-140.79;100.00;63287.88;5005912;28;20033;-64
2021/10/14 02:51:07;;;;;;;8.13;6.38;;;;;;;-140.79;100.00;63287.88;5005677;28;21000;-64
2021/10/14 02:53:33;;;;;;;8.60;6.20;;;;;;;-140.79;100.00;63287.88;4988042;28;20908;-64
2021/10/14 02:55:58;;;;;;;8.50;6.55;;;;;;;-140.79;100.00;63287.88;4988211;28;20544;-63
2021/10/14 02:58:24;;;;;;;8.55;6.45;;;;;;;-140.79;100.00;63287.88;5005752;28;20025;-63
2021/10/14 03:00:49;;;;;;;7.70;5.72;;;;;;;-140.79;100.00;63287.88;4988152;28;20030;-63
2021/10/14 03:03:15;;;;;;;8.90;6.60;;;;;;;-140.79;100.00;63287.88;5005556;28;20116;-63
2021/10/14 03:05:41;;;;;;;8.05;6.20;;;;;;;-140.79;100.00;63287.88;4988152;28;20026;-63
2021/10/14 03:08:06;;;;;;;8.32;5.95;;;;;;;-140.79;100.00;63287.88;5007687;28;20018;-63
2021/10/14 03:10:32;;;;;;;7.90;5.97;;;;;;;-140.79;100.00;63287.88;5008573;28;20056;-63
2021/10/14 03:12:57;;;;;;;7.07;5.50;;;;;;;-140.79;100.00;63287.88;5007480;28;20586;-64
2021/10/14 03:15:23;;;;;;;7.65;5.95;;;;;;;-140.79;100.00;63287.88;4988461;28;20026;-63
2021/10/14 03:17:48;;;;;;;8.32;5.88;;;;;;;-140.79;100.00;63287.88;5005207;28;20034;-63
2021/10/14 03:20:14;;;;;;;8.55;6.10;;;;;;;-140.79;100.00;63287.88;4987697;28;20034;-63
2021/10/14 03:22:39;;;;;;;7.93;6.38;;;;;;;-140.79;100.00;63287.88;5005141;28;20026;-63
2021/10/14 03:25:05;;;;;;;7.30;5.93;;;;;;;-140.79;100.00;63287.88;5005198;28;20026;-64
2021/10/14 03:27:30;;;;;;;6.88;5.68;;;;;;;-140.79;100.00;63287.88;5005030;28;20018;-63
2021/10/14 03:29:56;;;;;;;7.40;5.82;;;;;;;-140.79;100.00;63287.88;5005434;28;20017;-63
2021/10/14 03:32:21;;;;;;;7.25;5.68;;;;;;;-140.79;100.00;63287.88;5005241;28;20018;-64
2021/10/14 03:34:47;;;;;;;7.43;5.82;;;;;;;-140.79;100.00;63287.88;5005385;28;20384;-63
2021/10/14 03:37:12;;;;;;;7.50;5.38;;;;;;;-140.79;100.00;63287.88;5004897;28;20389;-64
2021/10/14 03:39:38;;;;;;;7.45;5.78;;;;;;;-140.79;100.00;63287.88;4987402;28;20192;-64
2021/10/14 03:42:03;;;;;;;8.45;6.05;;;;;;;-140.79;100.00;63287.88;5004878;28;20216;-64
2021/10/14 03:44:28;;;;;;;7.50;6.28;;;;;;;-140.79;100.00;63287.88;5005143;28;20018;-63
2021/10/14 03:46:54;;;;;;;7.43;5.80;;;;;;;-140.79;100.00;63287.88;5004676;28;20033;-64
2021/10/14 03:49:19;;;;;;;8.50;6.07;;;;;;;-140.79;100.00;63287.88;4987406;28;20033;-64
2021/10/14 03:51:45;;;;;;;6.95;5.22;;;;;;;-140.79;100.00;63287.88;4987492;28;20021;-64
2021/10/14 03:54:10;;;;;;;8.02;5.95;;;;;;;-140.79;100.00;63287.88;5004974;28;20052;-65
2021/10/14 03:56:36;;;;;;;8.50;6.00;;;;;;;-140.79;100.00;63287.88;5005037;28;20029;-65
2021/10/14 03:59:01;;;;;;;7.53;5.97;;;;;;;-140.79;100.00;63287.88;5004930;28;20483;-63
2021/10/14 04:01:27;;;;;;;7.00;5.53;;;;;;;-140.79;100.00;63287.88;5004547;28;20033;-63
2021/10/14 04:03:52;;;;;;;6.85;5.13;;;;;;;-140.79;100.00;63287.88;5004594;28;20057;-63
2021/10/14 04:06:18;;;;;;;7.63;5.13;;;;;;;-140.79;100.00;63287.88;5004894;28;20467;-63
2021/10/14 04:08:43;;;;;;;8.45;5.47;;;;;;;-140.79;100.00;63287.88;4986987;28;20017;-63
2021/10/14 04:11:09;;;;;;;6.72;4.97;;;;;;;-140.79;100.00;63287.88;5004724;28;20037;-64
2021/10/14 04:13:34;;;;;;;7.07;5.45;;;;;;;-140.79;100.00;63287.88;5004984;28;20037;-64
2021/10/14 04:16:00;;;;;;;7.57;5.55;;;;;;;-140.79;100.00;63287.88;5006191;28;20025;-64
2021/10/14 04:18:25;;;;;;;7.63;5.65;;;;;;;-140.79;100.00;63287.88;4990819;28;20034;-63
2021/10/14 04:20:50;;;;;;;7.15;5.72;;;;;;;-140.79;100.00;63287.88;5008397;28;20076;-63
2021/10/14 04:23:17;;;;;;;6.47;5.20;;;;;;;-140.79;100.00;63287.88;5008685;28;20429;-64
2021/10/14 04:25:43;;;;;;;6.15;4.78;;;;;;;-140.79;100.00;63287.88;5008694;28;20036;-65
2021/10/14 04:28:08;;;;;;;6.85;5.32;;;;;;;-140.79;100.00;63287.88;5008333;28;20404;-63
2021/10/14 04:30:34;;;;;;;6.95;5.28;;;;;;;-140.79;100.00;63287.88;4990920;28;20030;-63
2021/10/14 04:33:00;;;;;;;6.90;5.30;;;;;;;-140.79;100.00;63287.88;4990820;28;20088;-63
2021/10/14 04:35:25;;;;;;;6.05;5.00;;;;;;;-140.79;100.00;63287.88;4990975;28;20034;-63
2021/10/14 04:37:51;;;;;;;7.53;5.40;;;;;;;-140.79;100.00;63287.88;4990556;28;20157;-63
2021/10/14 04:40:16;;;;;;;5.95;4.80;;;;;;;-140.79;100.00;63287.88;5008669;28;20029;-63
2021/10/14 04:42:42;;;;;;;5.90;5.15;;;;;;;-140.79;100.00;63287.88;4990564;28;20493;-65
2021/10/14 04:45:07;;;;;;;6.93;5.25;;;;;;;-140.79;100.00;63287.88;4990652;28;20034;-64
2021/10/14 04:47:33;;;;;;;6.60;5.28;;;;;;;-140.79;100.00;63287.88;5006332;28;20034;-63
2021/10/14 04:49:59;;;;;;;5.55;4.90;;;;;;;-140.79;100.00;63287.88;5008280;28;20030;-63
2021/10/14 04:52:24;;;;;;;7.15;5.40;;;;;;;-140.79;100.00;63287.88;5008157;28;20064;-63
2021/10/14 04:54:50;;;;;;;5.82;4.82;;;;;;;-140.79;100.00;63287.88;5008038;28;20484;-63
2021/10/14 04:57:15;;;;;;;6.85;4.70;;;;;;;-140.79;100.00;63287.88;5007894;28;20120;-63
2021/10/14 04:59:41;;;;;;;6.85;5.00;;;;;;;-140.79;100.00;63287.88;5008226;28;20029;-63
2021/10/14 05:02:06;;;;;;;5.35;4.53;;;;;;;-140.79;100.00;63287.88;5007547;28;20477;-63
2021/10/14 05:04:32;;;;;;;6.78;4.90;;;;;;;-140.79;100.00;63287.88;4989908;28;20200;-63
2021/10/14 05:06:57;;;;;;;7.20;4.80;;;;;;;-140.79;100.00;63287.88;5007715;28;20960;-63
2021/10/14 05:09:23;;;;;;;6.75;4.72;;;;;;;-140.79;100.00;63287.88;5007781;28;20605;-64
2021/10/14 05:11:48;;;;;;;7.22;5.03;;;;;;;-140.79;100.00;63287.88;4990820;28;20040;-64
2021/10/14 05:14:14;;;;;;;7.93;4.95;;;;;;;-140.79;100.00;63287.88;5017229;28;20045;-64
2021/10/14 05:16:39;;;;;;;5.60;4.40;;;;;;;-140.79;100.00;63287.88;5010735;28;20424;-65
2021/10/14 05:19:05;;;;;;;6.47;4.60;;;;;;;-140.79;100.00;63287.88;4987876;28;20033;-65
2021/10/14 05:21:30;;;;;;;7.60;4.60;;;;;;;-140.79;100.00;63287.88;5006931;28;20018;-65
2021/10/14 05:23:59;;;;;;;8.18;5.18;;;;;;;-140.79;100.00;63287.88;4989552;28;20025;-63
2021/10/14 05:26:26;;;;;;;8.18;4.65;;;;;;;-140.79;100.00;63287.88;5007265;28;20029;-62
2021/10/14 05:28:52;;;;;;;6.78;4.45;;;;;;;-140.79;100.00;63287.88;4991783;28;20030;-63
2021/10/14 05:31:18;;;;;;;8.73;4.60;;;;;;;-140.79;100.00;63287.88;4990030;28;20101;-63
2021/10/14 05:33:44;;;;;;;5.82;4.63;;;;;;;-140.79;100.00;63287.88;5006850;28;20022;-63
2021/10/14 05:36:09;;;;;;;7.03;4.75;;;;;;;-140.79;100.00;63287.88;4986461;28;20022;-65
2021/10/14 05:38:34;;;;;;;6.43;4.80;;;;;;;-140.79;100.00;63287.88;5004627;28;20036;-62
2021/10/14 05:41:00;;;;;;;12.18;4.93;;;;;;;-140.79;100.00;63287.88;5004968;28;20049;-64
2021/10/14 05:43:25;;;;;;;9.27;4.68;;;;;;;-140.79;100.00;63287.88;4987566;28;20131;-63
2021/10/14 05:45:51;;;;;;;6.18;4.03;;;;;;;-140.79;100.00;63287.88;5005833;28;20614;-62
2021/10/14 05:48:16;;;;;;;7.93;4.18;;;;;;;-140.79;100.00;63287.88;5006193;28;20025;-63
2021/10/14 05:50:42;;;;;;;9.95;4.57;;;;;;;-140.79;100.00;63287.88;5005694;28;20504;-64
2021/10/14 05:53:07;;;;;;;6.78;4.00;;;;;;;-140.79;100.00;63287.88;5005933;28;20080;-64
2021/10/14 05:55:32;;;;;;;7.47;4.20;;;;;;;-140.79;100.00;63287.88;5006049;28;20025;-64
2021/10/14 05:57:58;;;;;;;7.30;4.13;;;;;;;-140.79;100.00;63287.88;5005688;28;20076;-64
2021/10/14 06:00:23;;;;;;;21.83;10.82;;;;;;;-140.79;100.00;63287.88;5004891;28;20543;-64
2021/10/14 06:02:49;;;;;;;32.28;17.15;;;;;;;-140.79;100.00;63287.88;5005530;28;20050;-65
2021/10/14 06:05:14;;;;;;;36.92;19.77;;;;;;;-140.79;100.00;63287.88;5004497;28;20026;-63
2021/10/14 06:07:40;;;;;;;45.67;24.75;;;;;;;-140.79;100.00;63287.88;4988079;28;20771;-63
2021/10/14 06:10:06;;;;;;;45.63;23.90;;;;;;;-140.79;100.00;63287.88;5005671;28;20670;-63
2021/10/14 06:12:31;;;;;;;46.05;24.50;;;;;;;-140.79;100.00;63287.88;5005148;28;20034;-64
2021/10/14 06:14:57;;;;;;;46.63;23.13;;;;;;;-140.79;100.00;63287.88;5007342;28;20156;-65
2021/10/14 06:17:22;;;;;;;41.28;21.10;;;;;;;-140.79;100.00;63287.88;5005138;28;20072;-66
2021/10/14 06:19:48;;;;;;;38.78;20.50;;;;;;;-140.79;100.00;63287.88;5004385;28;20021;-65
2021/10/14 06:22:13;;;;;;;38.70;19.27;;;;;;;-140.79;100.00;63287.88;5004655;28;20033;-65
2021/10/14 06:24:39;;;;;;;39.92;19.92;;;;;;;-140.79;100.00;63287.88;4989991;28;20033;-64
2021/10/14 06:27:04;;;;;;;35.97;18.67;;;;;;;-140.79;100.00;63287.88;5004724;28;20103;-64
2021/10/14 06:29:30;;;;;;;33.08;16.60;;;;;;;-140.79;100.00;63287.88;5005019;28;20029;-65
2021/10/14 06:31:55;;;;;;;31.42;17.33;;;;;;;-140.79;100.00;63287.88;5004676;28;20048;-65
2021/10/14 06:34:20;;;;;;;31.63;16.27;;;;;;;-140.79;100.00;63287.88;5010296;28;20030;-63
2021/10/14 06:36:46;;;;;;;31.83;16.33;;;;;;;-140.79;100.00;63287.88;5003965;28;20436;-63
2021/10/14 06:39:11;;;;;;;28.83;15.88;;;;;;;-140.79;100.00;63287.88;4989011;28;20039;-64
2021/10/14 06:41:37;;;;;;;28.83;15.80;;;;;;;-140.79;100.00;63287.88;4984437;28;20112;-63
2021/10/14 06:44:07;;;;;;;27.00;14.27;;;;;;;-140.79;100.00;63287.88;5007045;28;20021;-64
2021/10/14 06:46:32;;;;;;;;;;;;;;;-140.79;100.00;63287.88;5002842;28;20577;-64
2021/10/14 06:48:58;;;;;;;27.00;14.02;;;;;;;-140.79;100.00;63287.88;5004703;28;19957;-64
2021/10/14 06:51:23;;;;;;;25.00;13.95;;;;;;;-140.79;100.00;63287.88;5008152;28;20030;-65
2021/10/14 06:53:48;;;;;;;27.55;14.27;;;;;;;-140.79;100.00;63287.88;4987497;28;20404;-64
2021/10/14 06:56:14;;;;;;;26.17;14.50;;;;;;;-140.79;100.00;63287.88;5005063;28;20034;-64
2021/10/14 06:58:39;;;;;;;24.30;13.32;;;;;;;-140.79;100.00;63287.88;5008005;28;20064;-63
2021/10/14 07:01:05;;;;;;;23.33;13.45;;;;;;;-140.79;100.00;63287.88;5004998;28;20030;-65
2021/10/14 07:03:30;;;;;;;23.52;12.80;;;;;;;-140.79;100.00;63287.88;5005483;28;20275;-64
2021/10/14 07:05:56;;;;;;;23.42;12.48;;;;;;;-140.79;100.00;63287.88;5006576;28;20176;-65
2021/10/14 07:08:21;;;;;;;22.95;11.38;;;;;;;-140.79;100.00;63287.88;5004584;28;20254;-65
2021/10/14 07:10:47;;;;;;;19.85;11.35;;;;;;;-140.79;100.00;63287.88;5004219;28;20588;-65
2021/10/14 07:13:13;;;;;;;21.13;11.65;;;;;;;-140.79;100.00;63287.88;4990053;28;20029;-65
2021/10/14 07:15:39;;;;;;;22.95;12.45;;;;;;;-140.79;100.00;63287.88;4985696;28;20092;-65
2021/10/14 07:18:06;;;;;;;19.90;11.05;;;;;;;-140.79;100.00;63287.88;4860272;28;20058;-65
2021/10/14 07:20:31;;;;;;;21.55;11.68;;;;;;;-140.79;100.00;63287.88;4992394;28;20032;-65
2021/10/14 07:22:56;;;;;;;18.05;11.02;;;;;;;-140.79;100.00;63287.88;5003660;28;20026;-65
2021/10/14 07:25:22;;;;;;;21.10;11.75;;;;;;;-140.79;100.00;63287.88;5003025;28;20658;-64
2021/10/14 07:27:47;;;;;;;20.90;11.10;;;;;;;-140.79;100.00;63287.88;5006074;28;20810;-65
2021/10/14 07:30:13;;;;;;;17.85;9.93;;;;;;;-140.79;100.00;63287.88;5004917;28;20041;-64
2021/10/14 07:32:38;;;;;;;18.17;10.50;;;;;;;-140.79;100.00;63287.88;4985099;28;20034;-64
2021/10/14 07:35:05;;;;;;;17.35;9.73;;;;;;;-140.79;100.00;63287.88;5003390;28;20034;-64
2021/10/14 07:37:30;;;;;;;18.40;10.00;;;;;;;-140.79;100.00;63287.88;5003939;28;20050;-65
2021/10/14 07:39:59;;;;;;;17.65;10.23;;;;;;;-140.79;100.00;63287.88;5002791;28;20066;-65
2021/10/14 07:42:26;;;;;;;17.83;9.82;;;;;;;-140.79;100.00;63287.88;5002513;28;20598;-65
2021/10/14 07:44:51;;;;;;;17.63;9.40;;;;;;;-140.79;100.00;63287.88;4986620;28;20356;-65
2021/10/14 07:47:17;;;;;;;16.17;8.43;;;;;;;-140.79;100.00;63287.88;4988491;28;20115;-64
2021/10/14 07:49:43;;;;;;;16.38;8.90;;;;;;;-140.79;100.00;63287.88;5002890;28;20041;-64
2021/10/14 07:52:08;;;;;;;15.23;9.07;;;;;;;-140.79;100.00;63287.88;5003303;28;20029;-66
2021/10/14 07:54:33;;;;;;;14.57;8.50;;;;;;;-140.79;100.00;63287.88;5003389;28;20033;-65
2021/10/14 07:56:59;;;;;;;13.05;7.40;;;;;;;-140.79;100.00;63287.88;5002217;28;20044;-65
2021/10/14 07:59:24;;;;;;;14.38;7.95;;;;;;;-140.79;100.00;63287.88;4987925;28;20049;-65
2021/10/14 08:01:50;;;;;;;15.05;8.70;;;;;;;-140.79;100.00;63287.88;5008391;28;20034;-65
2021/10/14 08:04:15;;;;;;;12.75;7.53;;;;;;;-140.79;100.00;63287.88;4984620;28;20104;-64
2021/10/14 08:06:41;;;;;;;14.88;7.80;;;;;;;-140.79;100.00;63287.88;4987248;28;20128;-65
2021/10/14 08:09:06;;;;;;;13.25;7.30;;;;;;;-140.79;100.00;63287.88;4984812;28;20412;-65
2021/10/14 08:11:32;;;;;;;13.82;7.65;;;;;;;-140.79;100.00;63287.88;5003685;28;20262;-65
2021/10/14 08:13:57;;;;;;;11.77;7.20;;;;;;;-140.79;100.00;63287.88;4986777;28;20030;-64
2021/10/14 08:16:23;;;;;;;11.15;6.72;;;;;;;-140.79;100.00;63287.88;5004827;28;20022;-65
2021/10/14 08:18:48;;;;;;;11.60;7.43;;;;;;;-140.79;100.00;63287.88;5002767;28;20390;-63
2021/10/14 08:21:14;;;;;;;10.88;6.63;;;;;;;-140.79;100.00;63287.88;4982338;28;20352;-64
2021/10/14 08:23:39;;;;;;;11.52;6.85;;;;;;;-140.79;100.00;63287.88;5006968;28;20424;-65
2021/10/14 08:26:07;;;;;;;10.13;6.00;;;;;;;-140.79;100.00;63287.88;5002462;28;20025;-64
2021/10/14 08:28:33;;;;;;;10.25;6.60;;;;;;;-140.79;100.00;63287.88;4985022;28;20049;-64
2021/10/14 08:30:59;;;;;;;10.45;6.20;;;;;;;-140.79;100.00;63287.88;4980665;28;20077;-65
2021/10/14 08:33:24;;;;;;;10.90;6.05;;;;;;;-140.79;100.00;63287.88;4985576;28;20096;-65
2021/10/14 08:35:50;;;;;;;10.88;6.43;;;;;;;-140.79;100.00;63287.88;5003661;28;20036;-65
2021/10/14 08:38:15;;;;;;;9.95;6.38;;;;;;;-140.79;100.00;63287.88;4989978;28;20038;-64
2021/10/14 08:40:41;;;;;;;10.15;6.20;;;;;;;-140.79;100.00;63287.88;4987553;28;20682;-65
2021/10/14 08:43:13;;;;;;;8.98;5.57;;;;;;;-140.79;100.00;63287.88;5002902;28;20466;-64
2021/10/14 08:45:45;;;;;;;10.27;5.50;;;;;;;-140.79;100.00;63287.88;5004081;28;20037;-64
2021/10/14 08:48:11;;;;;;;9.63;5.40;;;;;;;-140.79;100.00;63287.88;4986348;28;20065;-65
2021/10/14 08:50:39;;;;;;;11.40;5.80;;;;;;;-140.79;100.00;63287.88;4984666;28;20072;-65
2021/10/14 08:53:05;;;;;;;10.90;5.18;;;;;;;-140.79;100.00;63287.88;4986657;28;20030;-64
2021/10/14 08:55:34;;;;;;;9.93;5.22;;;;;;;-140.79;100.00;63287.88;5002362;28;20042;-65
2021/10/14 08:58:00;;;;;;;9.20;5.25;;;;;;;-140.79;100.00;63287.88;5004872;28;20117;-64
2021/10/14 09:00:25;;;;;;;7.68;4.85;;;;;;;-140.79;100.00;63287.88;5002020;28;20411;-63
2021/10/14 09:02:51;;;;;;;8.93;5.10;;;;;;;-140.79;100.00;63287.88;5003922;28;20197;-63
2021/10/14 09:05:16;;;;;;;8.85;4.95;;;;;;;-140.79;100.00;63287.88;4988019;28;20084;-64
2021/10/14 09:07:42;;;;;;;8.35;4.95;;;;;;;-140.79;100.00;63287.88;5004123;28;20369;-64
2021/10/14 09:10:11;;;;;;;7.63;4.43;;;;;;;-140.79;100.00;63287.88;5006499;28;20053;-65
2021/10/14 09:12:37;;;;;;;8.50;5.32;;;;;;;-140.79;100.00;63287.88;5003923;28;20029;-65
2021/10/14 09:15:07;;;;;;;8.15;4.80;;;;;;;-140.79;100.00;63287.88;4987528;28;20795;-65
2021/10/14 09:17:38;;;;;;;;;;;;;;;-140.79;100.00;63287.88;5004170;28;20167;-65
2021/10/14 09:20:23;;;;;;;6.88;4.15;;;;;;;-140.79;100.00;63287.88;5005521;28;19925;-65
2021/10/14 09:22:55;;;;;;;6.85;4.38;;;;;;;-140.79;100.00;63287.88;5008363;28;20038;-65
2021/10/14 09:25:35;;;;;;;7.43;4.50;;;;;;;-140.79;100.00;63287.88;4988165;28;20029;-63
2021/10/14 09:28:07;;;;;;;6.65;4.20;;;;;;;-140.79;100.00;63287.88;5005880;28;20025;-63
2021/10/14 09:30:32;;;;;;;6.25;4.18;;;;;;;-140.79;100.00;63287.88;4984962;28;20037;-63
2021/10/14 09:32:57;;;;;;;7.70;4.50;;;;;;;-140.79;100.00;63287.88;4987246;28;20095;-64
2021/10/14 09:35:24;;;;;;;7.18;4.10;;;;;;;-140.79;100.00;63287.88;4986150;28;20034;-62
2021/10/14 09:37:50;;;;;;;6.25;3.95;;;;;;;-140.79;100.00;63287.88;5004924;28;20556;-68
2021/10/14 09:40:15;;;;;;;6.93;4.20;;;;;;;-140.79;100.00;63287.88;4984766;28;20025;-63
2021/10/14 09:43:02;;;;;;;7.88;4.18;;;;;;;-140.79;100.00;63287.88;5006444;28;20026;-61
2021/10/14 09:45:30;;;;;;;6.32;3.97;;;;;;;-140.79;100.00;63287.88;4993220;28;20022;-64
2021/10/14 09:48:08;;;;;;;6.10;3.83;;;;;;;-140.79;100.00;63287.88;4989301;28;20716;-64
2021/10/14 09:50:35;;;;;;;6.93;3.47;;;;;;;-140.79;100.00;63287.88;5006127;28;20120;-65
2021/10/14 09:53:02;;;;;;;6.05;3.50;;;;;;;-140.79;100.00;63287.88;5006639;28;20539;-63
2021/10/14 09:55:27;;;;;;;5.55;3.58;;;;;;;-140.79;100.00;63287.88;4987525;28;20026;-64
2021/10/14 09:57:52;;;;;;;5.93;3.72;;;;;;;-140.79;100.00;63287.88;5005860;28;20308;-63
2021/10/14 10:00:19;;;;;;;5.22;3.47;;;;;;;-140.79;100.00;63287.88;5005268;28;20452;-63
2021/10/14 10:02:45;;;;;;;5.63;3.40;;;;;;;-140.79;100.00;63287.88;5005075;28;20496;-65
2021/10/14 10:05:11;;;;;;;5.28;3.45;;;;;;;-140.79;100.00;63287.88;4971766;28;20026;-64
2021/10/14 10:07:41;;;;;;;6.05;3.35;;;;;;;-140.79;100.00;63287.88;5005761;28;20154;-64
2021/10/14 10:10:06;;;;;;;6.05;3.63;;;;;;;-140.79;100.00;63287.88;4986795;28;20033;-63
2021/10/14 10:12:33;;;;;;;5.80;3.20;;;;;;;-140.79;100.00;63287.88;4987927;28;20049;-64
2021/10/14 10:14:59;;;;;;;4.57;3.25;;;;;;;-140.79;100.00;63287.88;5004730;28;20509;-65
2021/10/14 10:17:38;;;;;;;5.60;3.13;;;;;;;-140.79;100.00;63287.88;5004947;28;20033;-65
2021/10/14 10:20:07;;;;;;;4.82;3.10;;;;;;;-140.79;100.00;63287.88;5005375;28;20028;-66
2021/10/14 10:22:35;;;;;;;4.70;2.87;;;;;;;-140.79;100.00;63287.88;5005146;28;20034;-65
2021/10/14 10:25:36;;;;;;;4.70;2.78;;;;;;;-140.79;100.00;63287.88;5004062;28;20025;-64
2021/10/14 10:28:03;;;;;;;4.75;2.80;;;;;;;-140.79;100.00;63287.88;5004315;28;20030;-64
2021/10/14 10:30:37;;;;;;;4.70;2.72;;;;;;;-140.79;100.00;63287.88;5006207;28;20192;-65
2021/10/14 10:33:03;;;;;;;4.30;2.90;;;;;;;-140.79;100.00;63287.88;5005659;28;20010;-64
2021/10/14 10:35:46;;;;;;;4.97;2.60;;;;;;;-140.79;100.00;63287.88;4988076;28;20014;-64
2021/10/14 10:38:23;;;;;;;6.03;2.67;;;;;;;-140.79;100.00;63287.88;5003742;28;20105;-64
2021/10/14 10:40:50;;;;;;;4.47;2.50;;;;;;;-140.79;100.00;63287.88;4933756;28;20064;-65
2021/10/14 10:43:23;;;;;;;3.75;2.38;;;;;;;-140.79;100.00;63287.88;5005488;28;20416;-63
2021/10/14 10:45:55;;;;;;;3.67;2.38;;;;;;;-140.79;100.00;63287.88;5005202;28;20061;-64
2021/10/14 10:48:40;;;;;;;4.25;2.58;;;;;;;-140.79;100.00;63287.88;4988203;28;20037;-64
2021/10/14 10:51:08;;;;;;;3.70;2.40;;;;;;;-140.79;100.00;63287.88;5005875;28;20041;-65
2021/10/14 10:53:41;;;;;;;5.03;2.70;;;;;;;-140.79;100.00;63287.88;5002777;28;20040;-66
2021/10/14 10:56:08;;;;;;;5.28;2.70;;;;;;;-140.79;100.00;63287.88;5004336;28;20033;-65
2021/10/14 10:58:45;;;;;;;3.35;2.35;;;;;;;-140.79;100.00;63287.88;4987074;28;20033;-65
2021/10/14 11:01:14;;;;;;;3.70;2.20;;;;;;;-140.79;100.00;63287.88;4987009;28;20040;-66
2021/10/14 11:03:52;;;;;;;4.63;2.72;;;;;;;-140.79;100.00;63287.88;5004806;28;20420;-65